Detall de PIREP

Printer-friendly versionPDF version

[2011/03/25 21:23:00]
Flight IATA:CT3229
Pilot Number:037
Company ICAO:CAT
Aircraft Type:B763/F
PAX:200
Departing Airport: LMML
Destination Airport: LEPA
Alternate Airport:LEBL
Online: VATSIM
Route:GZO UM978 SONAK UR781 DIDON UM978 TUC UA411 KEMIR UM978 MORJA UA411 ANB UM134 GENIO UN859 OSGAL
Flight Level:F370
No Slew and time accel
No pause
Crash detect
Detect pilot in Cockpit between each 30 and 45 minutes
21:23 Zero fuel Weight: 280217 Lbs, Fuel Weight: 41638 Lbs
21:23 VATSIM:LMML 252045Z VRB01KT CAVOK 09/07 Q1026 NOSIG
21:23 VATSIM:LEPA 252100Z 00000KT 6000 SCT007 14/12 Q1022 NOSIG
21:48 Parking Brakes off
21:56 Take-off
21:56 Take off Weight: 320056 Lbs
21:56 Wind: 237º @ 003 Knots Heading: 140º
21:56 POS N35º 50´ 39´´ E014º 29´ 44´´
21:56 Flaps:3 at 169 Knots
21:56 Gear Up: 176 Knots
21:56 Flaps:2 at 186 Knots
21:57 Flaps:1 at 180 Knots
21:57 Flaps:0 at 204 Knots
22:11 Wind:181º@023 Knots Heading: 281º Ground Speed: 473 Knots Altitude 30705 ft
22:14 TOC
22:14 Fuel Weight: 32404 Lb
22:26 Wind:165º@014 Knots Heading: 280º Ground Speed: 465 Knots Altitude 37283 ft
22:41 Wind:043º@008 Knots Heading: 270º Ground Speed: 463 Knots Altitude 37240 ft
22:56 Wind:249º@005 Knots Heading: 290º Ground Speed: 455 Knots Altitude 37247 ft
23:09 TOD
23:09 Fuel Weight: 23211 Lb
23:11 Wind:215º@006 Knots Heading: 291º Ground Speed: 439 Knots Altitude 34284 ft
23:26 Wind:229º@002 Knots Heading: 345º Ground Speed: 287 Knots Altitude 6922 ft
23:30 Flaps:1 at 222 Knots
23:32 Flaps:2 at 189 Knots
23:32 Gear Down: 190 Knots
23:32 Flaps:3 at 179 Knots
23:33 Flaps:4 at 176 Knots
23:34 Flaps:5 at 167 Knots
23:34 Flaps:6 at 154 Knots
23:35 TouchDown:Rate -491 ft/min Speed: 133 Knots
23:35 VATSIM:LEPA 252300Z 23001KT 6000 SCT011 11/10 Q1022 NOSIG
23:35 Land
23:35 Wind:232º@001 Knots
23:35 Heading: 237º
23:35 Flight Duration: 01:39
23:35 Landing Weight: 300999 Lbs
23:35 POS N39º 32´ 57´´ E002º 44´ 55´´
23:41 Parking brakes on
23:41 Block to Block Duration: 01:53
23:41 Final Fuel: 19839 Lbls
23:41 Spent Fuel: 21798 Lbls
23:41 Flight Length: 564 NM
23:41 TOD Land Length: 142 NM

Exportar CSV

Powered by Drupal - Modified by Danger4k